Flight Track Log - Related Links

Times and Time Zones

All times are in EDT time to prevent confusion due to time zone crossing. See the UAL1152 flight status page for this flight to view local times or setup timezone preferences in your user account.

Time Position Orientation Groundspeed Altitude Reporting Facility
EDT Latitude Longitude Course Direction KTS MPH feet Rate Location/Type
Wed 06:37:15 AM 26.5444 -81.7815 138° Southeast  Level FlightAware Approximate
Wed 06:38:15 AM 26.4612 -81.8416 84° East  Level FlightAware Approximate
Wed 06:39:44 AM 26.4739 -81.7114 233° Southwest 239 275 5,600  Level Miami Center
Wed 06:40:44 AM 26.4278 -81.7792 263° West 250 288 9,200 3,000 Climbing Miami Center
Wed 06:41:44 AM 26.4183 -81.8669 295° West 255 293 11,600 2,650 Climbing Miami Center
Wed 06:42:44 AM 26.4608 -81.9706 292° West 295 339 14,500 3,150 Climbing Miami Center
Wed 06:43:44 AM 26.5006 -82.0814 294° West 343 395 17,900 2,950 Climbing Miami Center
Wed 06:44:44 AM 26.5428 -82.1878 293° West 363 418 20,400 2,500 Climbing Miami Center
Wed 06:45:44 AM 26.5864 -82.3033 292° West 390 449 22,900 1,900 Climbing Miami Center
Wed 06:46:44 AM 26.6300 -82.4239 293° West 405 466 24,200 1,650 Climbing Miami Center
Wed 06:47:44 AM 26.6792 -82.5517 292° West 433 498 26,200 1,500 Climbing Miami Center
Wed 06:48:44 AM 26.7261 -82.6842 293° West 449 517 27,200 1,700 Climbing Miami Center
Wed 06:49:44 AM 26.7750 -82.8144 291° West 455 524 29,600 2,400 Climbing Miami Center
Wed 06:50:44 AM 26.8197 -82.9447 292° West 455 524 32,000 2,200 Climbing Miami Center
Wed 06:51:44 AM 26.8647 -83.0678 291° West 448 516 34,000 2,350 Climbing Miami Center
Wed 06:52:44 AM 26.9056 -83.1842 292° West 428 493 36,700 2,050 Climbing Miami Center
Wed 06:53:44 AM 26.9444 -83.2933 293° West 397 457 38,100 950 Climbing Miami Center
Wed 06:54:44 AM 26.9875 -83.4075 291° West 391 450 38,600 600 Climbing Miami Center
Wed 06:55:44 AM 27.0261 -83.5214 293° West 385 443 39,300 650 Climbing Miami Center
Wed 06:56:44 AM 27.0725 -83.6453 291° West 385 443 39,900 300 Climbing Miami Center
Wed 06:57:44 AM 27.1128 -83.7619 292° West 396 456 39,900  Level Miami Center
Wed 06:58:44 AM 27.1550 -83.8808 292° West 396 456 39,900  Level Miami Center
Wed 06:59:44 AM 27.1972 -83.9978 290° West 401 461 39,900  Level Miami Center
Wed 07:00:44 AM 27.2353 -84.1144 293° West 396 456 39,900  Level Miami Center
Wed 07:01:44 AM 27.2794 -84.2317 292° West 396 456 39,900  Level Miami Center
Wed 07:02:44 AM 27.3214 -84.3486 291° West 396 456 39,900  Level Miami Center
Wed 07:04:34 AM 27.3925 -84.5539 291° West 413 475 39,900  Level Jacksonville Center
Wed 07:05:34 AM 27.4325 -84.6714 293° West 413 475 39,900  Level Jacksonville Center
Wed 07:06:34 AM 27.4767 -84.7914 290° West 413 475 39,900  Level Jacksonville Center
Wed 07:07:34 AM 27.5147 -84.9067 293° West 413 475 39,900  Level Jacksonville Center
Wed 07:08:34 AM 27.5586 -85.0247 288° West 408 470 39,900  Level Jacksonville Center
Wed 07:09:34 AM 27.5900 -85.1353 291° West 408 470 39,900  Level Jacksonville Center
Wed 07:10:34 AM 27.6317 -85.2581 290° West 385 443 39,900  Level Jacksonville Center
Wed 07:11:34 AM 27.6653 -85.3642 292° West 392 451 39,900  Level Jacksonville Center
Wed 07:12:34 AM 27.7047 -85.4753 290° West 387 445 39,900  Level Jacksonville Center
Wed 07:13:34 AM 27.7439 -85.5958 291° West 394 453 39,900  Level Jacksonville Center
Wed 07:14:34 AM 27.7833 -85.7094 292° West 394 453 39,900  Level Jacksonville Center
Wed 07:15:34 AM 27.8225 -85.8183 290° West 389 448 39,900  Level Jacksonville Center
Wed 07:16:34 AM 27.8594 -85.9344 292° West 394 453 39,900  Level Jacksonville Center
Wed 07:17:34 AM 27.9006 -86.0508 290° West 395 455 39,900  Level Jacksonville Center
Wed 07:18:34 AM 27.9372 -86.1669 290° West 395 455 39,900  Level Jacksonville Center
Wed 07:19:34 AM 27.9758 -86.2856 291° West 389 448 39,900  Level Jacksonville Center
Wed 07:20:34 AM 28.0183 -86.4094 292° West 409 471 39,900  Level Jacksonville Center
Wed 07:21:34 AM 28.0572 -86.5164 288° West 404 465 39,900  Level Jacksonville Center
Wed 07:22:34 AM 28.0914 -86.6331 291° West 404 465 39,900  Level Jacksonville Center
Wed 07:23:34 AM 28.1317 -86.7497 290° West 402 463 39,900  Level Jacksonville Center
Wed 07:24:34 AM 28.1697 -86.8711 291° West 402 463 39,900  Level Jacksonville Center
Wed 07:26:34 AM 28.2561 -87.1253 289° West 405 466 39,900  Level Houston Center
Wed 07:27:34 AM 28.2864 -87.2256 291° West 400 460 39,900  Level Houston Center
Wed 07:28:34 AM 28.3281 -87.3489 289° West 386 444 39,900  Level Houston Center
Wed 07:29:34 AM 28.3631 -87.4656 291° West 407 468 39,900  Level Houston Center
Wed 07:30:34 AM 28.4042 -87.5867 287° West 413 475 39,900  Level Houston Center
Wed 07:31:34 AM 28.4344 -87.6964 292° West 387 445 39,900  Level Houston Center
Wed 07:32:34 AM 28.4822 -87.8294 288° West 410 472 39,900  Level Houston Center
Wed 07:33:34 AM 28.5147 -87.9442 292° West 405 466 39,900  Level Houston Center
Wed 07:34:34 AM 28.5597 -88.0725 286° West 426 490 39,900  Level Houston Center
Wed 07:35:34 AM 28.5922 -88.1992 290° West 402 463 39,900  Level Houston Center
Wed 07:36:34 AM 28.6308 -88.3186 288° West 402 463 39,900  Level Houston Center
Wed 07:37:34 AM 28.6672 -88.4456 291° West 402 463 39,900  Level Houston Center
Wed 07:38:34 AM 28.7075 -88.5650 283° West 407 468 39,900  Level Houston Center
Wed 07:39:34 AM 28.7333 -88.6897 281° West 407 468 39,900  Level Houston Center
Wed 07:40:34 AM 28.7550 -88.8219 283° West 412 474 39,900  Level Houston Center
Wed 07:41:34 AM 28.7803 -88.9469 281° West 418 481 39,900  Level Houston Center
Wed 07:42:34 AM 28.8039 -89.0814 283° West 418 481 39,900  Level Houston Center
Wed 07:43:34 AM 28.8292 -89.2042 281° West 413 475 39,900  Level Houston Center
Wed 07:44:34 AM 28.8503 -89.3339 282° West 413 475 39,900  Level Houston Center
Wed 07:45:34 AM 28.8753 -89.4639 282° West 413 475 39,900  Level Houston Center
Wed 07:46:34 AM 28.8983 -89.5917 282° West 413 475 39,900  Level Houston Center
Wed 07:47:35 AM 28.9231 -89.7242 282° West 413 475 39,900  Level Houston Center
Wed 07:48:34 AM 28.9458 -89.8519 281° West 413 475 39,900  Level Houston Center
Wed 07:49:34 AM 28.9683 -89.9797 281° West 413 475 39,900  Level Houston Center
Wed 07:50:34 AM 28.9906 -90.1100 282° West 413 475 39,900  Level Houston Center
Wed 07:51:34 AM 29.0150 -90.2428 281° West 418 481 39,900  Level Houston Center
Wed 07:52:35 AM 29.0372 -90.3731 282° West 425 489 39,900  Level Houston Center
Wed 07:53:34 AM 29.0614 -90.5058 280° West 425 489 39,900  Level Houston Center
Wed 07:54:34 AM 29.0814 -90.6364 282° West 425 489 39,900  Level Houston Center
Wed 07:55:34 AM 29.1053 -90.7669 282° West 425 489 39,900  Level Houston Center
Wed 07:56:34 AM 29.1289 -90.8975 281° West 425 489 39,900  Level Houston Center
Wed 07:57:34 AM 29.1506 -91.0258 281° West 425 489 39,900  Level Houston Center
Wed 07:58:34 AM 29.1719 -91.1567 304° West 425 489 39,900  Level Houston Center
Wed 07:59:34 AM 29.2392 -91.2731 317° Northwest 416 479 39,900  Level Houston Center
Wed 08:00:34 AM 29.3269 -91.3656 312° West 424 488 39,900  Level Houston Center
Wed 08:01:34 AM 29.4044 -91.4631 278° West 424 488 39,900 -300 Level Houston Center
Wed 08:02:34 AM 29.4192 -91.5872 275° West 386 444 39,300 -750 Descending Houston Center
Wed 08:03:34 AM 29.4297 -91.7183 271° West 393 452 38,400 -893 Descending Houston Center
Wed 08:04:35 AM 29.4317 -91.8447 273° West 398 458 37,500 -950 Descending Houston Center
Wed 08:05:34 AM 29.4378 -91.9736 274° West 404 465 36,500 -950 Descending Houston Center
Wed 08:06:35 AM 29.4458 -92.1025 273° West 404 465 35,600 -942 Descending Houston Center
Wed 08:07:35 AM 29.4514 -92.2336 272° West 404 465 34,600 -958 Descending Houston Center
Wed 08:08:34 AM 29.4550 -92.3650 274° West 404 465 33,700 -950 Descending Houston Center
Wed 08:09:35 AM 29.4628 -92.4986 272° West 411 473 32,700 -893 Descending Houston Center
Wed 08:10:35 AM 29.4658 -92.6344 273° West 421 484 31,900 -400 Descending Houston Center
Wed 08:11:35 AM 29.4711 -92.7683 272° West 421 484 31,900  Level Houston Center
Wed 08:12:35 AM 29.4742 -92.9044 273° West 421 484 31,900  Level Houston Center
Wed 08:13:35 AM 29.4811 -93.0381 273° West 421 484 31,900  Level Houston Center
Wed 08:14:35 AM 29.4861 -93.1694 272° West 421 484 31,900  Level Houston Center
Wed 08:15:34 AM 29.4908 -93.3056 273° West 421 484 31,900 -150 Level Houston Center
Wed 08:16:35 AM 29.4975 -93.4417 272° West 421 484 31,600 -1,950 Descending Houston Center
Wed 08:17:34 AM 29.5019 -93.5753 273° West 421 484 28,000 -3,250 Descending Houston Center
Wed 08:18:35 AM 29.5083 -93.7092 273° West 426 490 25,100 -2,926 Descending Houston Center
Wed 08:19:35 AM 29.5147 -93.8406 272° West 421 484 22,100 -2,650 Descending Houston Center
Wed 08:20:35 AM 29.5189 -93.9647 273° West 416 479 19,800 -2,200 Descending Houston Center
Wed 08:21:35 AM 29.5250 -94.0867 273° West 397 457 17,700 -2,050 Descending Houston Center
Wed 08:22:35 AM 29.5294 -94.1894 271° West 383 441 15,700 -2,226 Descending Houston Center
Wed 08:23:39 AM 29.5311 -94.3231 290° West 359 413 13,100 -2,000 Descending Houston Center
Wed 08:24:35 AM 29.5567 -94.4050 305° West 349 402 11,700 -1,293 Descending Houston Center
Wed 08:25:35 AM 29.6072 -94.4875 316° Northwest 325 374 10,600 -1,200 Descending Houston Center
Wed 08:26:35 AM 29.6642 -94.5511 315° West 304 350 9,300 -1,450 Descending Houston Center
Wed 08:27:35 AM 29.7192 -94.6150 316° Northwest 285 328 7,700 -1,500 Descending Houston Center
Wed 08:28:35 AM 29.7742 -94.6764 314° West 280 322 6,300 -1,350 Descending Houston Center
Wed 08:29:35 AM 29.8250 -94.7378 314° West 274 315 5,000 -1,300 Descending Houston Center
Wed 08:30:35 AM 29.8758 -94.7992 315° West 269 310 3,700 -902 Descending Houston Center
Wed 08:31:48 AM 29.9428 -94.8778 296° West 266 306 3,000 -358 Descending Houston Center
Wed 08:32:49 AM 29.9764 -94.9581 270° West 276 318 2,900 -49 Descending Houston Center
Wed 08:33:50 AM 29.9764 -95.0419 271° West 257 296 2,900  Level Houston Center
Wed 08:34:35 AM 29.9772 -95.0969 271° West 253 291 2,900  Level Houston Center

Login

Don't have an account? Register now (free) for customized features, flight alerts, and more!